Time;durP1;ratioP1;P1;durP2;ratioP2;P2;SDS_P1;SDS_P2;PMS_P1;PMS_P2;Temp;Humidity;BMP_temperature;BMP_pressure;BME280_temperature;BME280_humidity;BME280_pressure;Samples;Min_cycle;Max_cycle;Signal;HPM_P1;HPM_P2
2021/04/22 00:01:21;;;;;;;0.70;0.70;;;5.70;93.30;;;5.93;100.00;-20843.53;5078046;28;20543;-71
2021/04/22 00:03:48;;;;;;;0.80;0.70;;;5.50;94.40;;;5.98;100.00;-20844.91;5077816;28;20184;-70
2021/04/22 00:06:16;;;;;;;0.70;0.60;;;5.60;94.20;;;5.78;100.00;-20839.63;5094688;28;20220;-70
2021/04/22 00:08:43;;;;;;;0.77;0.70;;;5.40;95.40;;;5.62;100.00;-20835.16;5094551;28;20628;-71
2021/04/22 00:11:10;;;;;;;0.70;0.70;;;5.30;96.40;;;5.43;100.00;-20830.03;5094764;28;20180;-71
2021/04/22 00:13:38;;;;;;;0.70;0.60;;;5.20;98.10;;;5.24;100.00;-20824.88;5092870;28;20230;-71
2021/04/22 00:16:05;;;;;;;0.80;0.70;;;5.00;99.90;;;5.00;100.00;-20818.34;5093056;28;20269;-71
2021/04/22 00:18:33;;;;;;;0.70;0.60;;;4.70;99.90;;;4.83;100.00;-20813.59;5090784;28;20700;-71
2021/04/22 00:21:00;;;;;;;0.70;0.60;;;4.50;99.90;;;4.70;100.00;-20809.97;5083080;28;20184;-71
2021/04/22 00:23:27;;;;;;;0.70;0.60;;;4.40;99.90;;;4.66;100.00;-20809.00;5072766;28;20549;-71
2021/04/22 00:25:55;;;;;;;0.70;0.60;;;4.30;99.90;;;4.65;100.00;-20808.72;5073790;28;20220;-70
2021/04/22 00:28:22;;;;;;;0.75;0.68;;;4.30;99.90;;;4.56;100.00;-20806.34;5057174;28;20208;-70
2021/04/22 00:30:50;;;;;;;0.70;0.60;;;4.20;99.90;;;4.45;100.00;-20803.28;5079212;28;20208;-71
2021/04/22 00:33:19;;;;;;;0.70;0.60;;;4.10;99.90;;;4.33;100.00;-20799.94;5075779;28;20592;-70
2021/04/22 00:35:48;;;;;;;0.80;0.70;;;4.00;99.90;;;4.40;100.00;-20801.75;5076633;28;20203;-71
2021/04/22 00:38:17;;;;;;;0.70;0.60;;;4.20;99.90;;;4.36;100.00;-20800.94;5073748;28;20211;-70
2021/04/22 00:40:48;;;;;;;0.70;0.70;;;4.10;99.90;;;4.36;100.00;-20800.94;5073857;28;20179;-71
2021/04/22 00:43:17;;;;;;;0.80;0.75;;;4.10;99.90;;;4.30;100.00;-20799.25;5072696;28;20294;-70
2021/04/22 00:45:46;;;;;;;0.80;0.70;;;4.10;99.90;;;4.30;100.00;-20799.13;5072497;28;20184;-71
2021/04/22 00:48:17;;;;;;;0.80;0.70;;;4.10;99.90;;;4.30;100.00;-20799.25;5073927;28;20189;-70
2021/04/22 00:50:50;;;;;;;0.70;0.60;;;4.00;99.90;;;4.09;100.00;-20793.41;5061081;28;20188;-71
2021/04/22 00:53:18;;;;;;;0.70;0.60;;;3.80;99.90;;;3.99;100.00;-20790.63;5080709;28;20671;-71
2021/04/22 00:55:47;;;;;;;0.70;0.60;;;3.70;99.90;;;4.04;100.00;-20792.00;5091059;28;20227;-71
2021/04/22 00:58:14;;;;;;;0.80;0.70;;;3.60;99.90;;;3.98;100.00;-20790.34;5073340;28;20278;-71
2021/04/22 01:00:44;;;;;;;0.90;0.90;;;3.70;99.90;;;3.98;100.00;-20790.34;5073363;28;20370;-71
2021/04/22 01:03:12;;;;;;;0.70;0.63;;;3.60;99.90;;;3.97;100.00;-20790.06;5072499;28;20207;-71
2021/04/22 01:05:43;;;;;;;0.70;0.60;;;3.70;99.90;;;3.81;100.00;-20785.88;5076856;28;20190;-71
2021/04/22 01:08:11;;;;;;;0.70;0.60;;;3.50;99.90;;;3.84;100.00;-20786.72;5072119;28;20632;-70
2021/04/22 01:10:39;;;;;;;0.80;0.70;;;3.50;99.90;;;3.76;100.00;-20784.47;5084769;28;20203;-70
2021/04/22 01:13:08;;;;;;;0.80;0.70;;;3.40;99.90;;;3.61;100.00;-20780.28;5093660;28;20279;-70
2021/04/22 01:15:35;;;;;;;0.80;0.70;;;3.40;99.90;;;3.48;100.00;-20776.66;5093207;28;20260;-70
2021/04/22 01:18:07;;;;;;;0.77;0.70;;;3.20;99.90;;;3.39;100.00;-20774.31;5110225;28;20180;-71
2021/04/22 01:20:38;;;;;;;0.70;0.65;;;3.10;99.90;;;3.30;100.00;-20771.94;5095535;28;20180;-70
2021/04/22 01:23:07;;;;;;;0.73;0.60;;;3.10;99.90;;;3.25;100.00;-20770.53;5097369;28;20562;-70
2021/04/22 01:25:36;;;;;;;0.80;0.70;;;3.00;99.90;;;3.29;100.00;-20771.50;5083943;28;20545;-70
2021/04/22 01:28:07;;;;;;;0.70;0.60;;;3.00;99.90;;;3.20;100.00;-20769.13;5078426;28;20752;-71
2021/04/22 01:30:40;;;;;;;0.70;0.60;;;2.90;99.90;;;3.14;100.00;-20767.47;5081449;28;20647;-70
2021/04/22 01:33:09;;;;;;;0.80;0.60;;;2.80;99.90;;;3.07;100.00;-20765.50;5079706;28;20215;-71
2021/04/22 01:35:40;;;;;;;0.70;0.60;;;2.70;99.90;;;3.08;100.00;-20765.78;5097318;28;20195;-71
2021/04/22 01:38:10;;;;;;;0.80;0.70;;;2.70;99.90;;;3.05;100.00;-20764.94;5095638;28;20196;-71
2021/04/22 01:40:38;;;;;;;0.70;0.70;;;2.80;99.90;;;3.06;100.00;-20765.38;5095815;28;20184;-71
2021/04/22 01:43:06;;;;;;;0.77;0.60;;;2.80;99.90;;;3.04;100.00;-20764.81;5097483;28;20206;-70
2021/04/22 01:45:34;;;;;;;0.80;0.70;;;2.70;99.90;;;3.13;100.00;-20767.19;5092748;28;20193;-71
2021/04/22 01:48:01;;;;;;;0.70;0.60;;;2.80;99.90;;;3.04;100.00;-20764.69;5084697;28;20188;-71
2021/04/22 01:50:32;;;;;;;0.80;0.70;;;2.80;99.90;;;3.05;100.00;-20764.94;5087179;28;20668;-70
2021/04/22 01:53:00;;;;;;;0.80;0.75;;;2.70;99.90;;;2.99;100.00;-20763.28;5079069;28;20187;-71
2021/04/22 01:55:32;;;;;;;0.70;0.60;;;2.60;99.90;;;2.90;100.00;-20761.03;5112778;28;20218;-71
2021/04/22 01:58:00;;;;;;;0.70;0.60;;;2.60;99.90;;;2.78;100.00;-20757.69;5096986;28;20722;-71
2021/04/22 02:00:33;;;;;;;0.80;0.70;;;2.50;99.90;;;2.70;100.00;-20755.47;5088741;28;20199;-71
2021/04/22 02:03:00;;;;;;;0.70;0.60;;;2.50;99.90;;;2.74;100.00;-20756.44;5096832;28;20254;-71
2021/04/22 02:05:27;;;;;;;0.70;0.63;;;2.40;99.90;;;2.66;100.00;-20754.34;5096855;28;20192;-71
2021/04/22 02:07:55;;;;;;;0.80;0.73;;;2.30;99.90;;;2.67;100.00;-20754.75;5095684;28;20192;-71
2021/04/22 02:10:22;;;;;;;0.80;0.60;;;2.30;99.90;;;2.59;100.00;-20752.41;5083413;28;20197;-71
2021/04/22 02:12:50;;;;;;;0.73;0.63;;;2.20;99.90;;;2.56;100.00;-20751.69;5077377;28;20216;-71
2021/04/22 02:15:22;;;;;;;0.70;0.60;;;2.20;99.90;;;2.53;100.00;-20750.84;5085402;28;20193;-71
2021/04/22 02:17:49;;;;;;;0.80;0.70;;;2.20;99.90;;;2.53;100.00;-20750.84;5075065;28;20181;-71
2021/04/22 02:20:17;;;;;;;0.80;0.70;;;2.20;99.90;;;2.50;100.00;-20749.88;5080556;28;20208;-71
2021/04/22 02:22:45;;;;;;;0.70;0.60;;;2.10;99.90;;;2.40;100.00;-20747.22;5082683;28;20185;-71
2021/04/22 02:25:17;;;;;;;0.80;0.70;;;2.10;99.90;;;2.37;100.00;-20746.53;5075882;28;20730;-70
2021/04/22 02:27:45;;;;;;;0.70;0.68;;;2.00;99.90;;;2.33;100.00;-20745.28;5075864;28;20258;-71
2021/04/22 02:30:17;;;;;;;0.70;0.60;;;2.00;99.90;;;2.25;100.00;-20743.19;5075957;28;20254;-70
2021/04/22 02:32:44;;;;;;;0.80;0.70;;;1.90;99.90;;;2.17;100.00;-20740.94;5076179;28;20286;-71
2021/04/22 02:35:14;;;;;;;0.80;0.70;;;1.80;99.90;;;2.08;100.00;-20738.44;5078166;28;20169;-70
2021/04/22 02:37:41;;;;;;;0.80;0.70;;;1.80;99.90;;;2.04;100.00;-20737.44;5061193;28;21267;-71
2021/04/22 02:40:14;;;;;;;0.80;0.70;;;1.80;99.90;;;2.05;100.00;-20737.59;5095707;28;20204;-70
2021/04/22 02:42:42;;;;;;;0.70;0.68;;;1.80;99.90;;;2.04;100.00;-20737.31;5112024;28;20606;-70
2021/04/22 02:45:14;;;;;;;0.80;0.75;;;1.70;99.90;;;2.06;100.00;-20737.88;5094694;28;20192;-70
2021/04/22 02:47:41;;;;;;;0.80;0.70;;;1.80;99.90;;;2.20;100.00;-20741.63;5096069;28;20180;-70
2021/04/22 02:50:12;;;;;;;0.70;0.63;;;1.90;99.90;;;2.14;100.00;-20740.09;5090668;28;20573;-70
2021/04/22 02:52:39;;;;;;;0.80;0.80;;;1.90;99.90;;;2.15;100.00;-20740.53;5091076;28;20227;-70
2021/04/22 02:55:08;;;;;;;0.80;0.63;;;1.90;99.90;;;2.12;100.00;-20739.69;5075409;28;20535;-70
2021/04/22 02:57:35;;;;;;;0.70;0.60;;;1.90;99.90;;;2.17;100.00;-20741.09;5075721;28;20681;-70
2021/04/22 03:00:05;;;;;;;0.70;0.70;;;1.90;99.90;;;2.14;100.00;-20740.09;5075363;28;20236;-71
2021/04/22 03:02:33;;;;;;;0.80;0.70;;;1.80;99.90;;;2.03;100.00;-20737.03;5091971;28;20187;-70
2021/04/22 03:05:00;;;;;;;0.80;0.80;;;1.80;99.90;;;1.96;100.00;-20735.22;5095268;28;20227;-70
2021/04/22 03:07:27;;;;;;;0.80;0.80;;;1.70;99.90;;;1.96;100.00;-20735.06;5095341;28;20234;-71
2021/04/22 03:09:54;;;;;;;0.70;0.70;;;1.70;99.90;;;1.92;100.00;-20734.09;5089400;28;20511;-71
2021/04/22 03:12:21;;;;;;;0.80;0.60;;;1.60;99.90;;;2.01;100.00;-20736.47;5075230;28;20208;-70
2021/04/22 03:14:48;;;;;;;0.80;0.80;;;1.60;99.90;;;1.94;100.00;-20734.78;5075270;28;20203;-71
2021/04/22 03:17:15;;;;;;;0.73;0.65;;;1.60;99.90;;;1.93;100.00;-20734.38;5087802;28;20241;-71
2021/04/22 03:19:43;;;;;;;0.70;0.70;;;1.60;99.90;;;1.84;100.00;-20731.88;5093551;28;20238;-71
2021/04/22 03:22:10;;;;;;;0.77;0.70;;;1.60;99.90;;;1.83;100.00;-20731.72;5074859;28;20597;-70
2021/04/22 03:24:37;;;;;;;0.70;0.60;;;1.50;99.90;;;1.75;100.00;-20729.50;5089047;28;20200;-70
2021/04/22 03:27:05;;;;;;;0.75;0.70;;;1.50;99.90;;;1.83;100.00;-20731.72;5094476;28;20232;-70
2021/04/22 03:29:32;;;;;;;0.80;0.80;;;1.50;99.90;;;1.80;100.00;-20730.88;5075867;28;20177;-71
2021/04/22 03:31:59;;;;;;;0.80;0.70;;;1.50;99.90;;;1.71;100.00;-20728.38;5080419;28;20189;-71
2021/04/22 03:34:26;;;;;;;0.77;0.70;;;1.50;99.90;;;1.69;100.00;-20727.81;5074979;28;20181;-71
2021/04/22 03:36:54;;;;;;;0.70;0.70;;;1.40;99.90;;;1.69;100.00;-20727.81;5092283;28;20184;-70
2021/04/22 03:39:21;;;;;;;0.70;0.60;;;1.40;99.90;;;1.65;100.00;-20726.69;5093179;28;20212;-70
2021/04/22 03:41:48;;;;;;;0.70;0.70;;;1.40;99.90;;;1.67;100.00;-20727.25;5093984;28;20253;-71
2021/04/22 03:44:15;;;;;;;0.80;0.70;;;1.40;99.90;;;1.68;100.00;-20727.66;5110779;28;20176;-72
2021/04/22 03:46:42;;;;;;;0.80;0.80;;;1.30;99.90;;;1.66;100.00;-20726.97;5094433;28;20597;-72
2021/04/22 03:49:09;;;;;;;0.80;0.70;;;1.30;99.90;;;1.61;100.00;-20725.56;5093725;28;20716;-71
2021/04/22 03:51:36;;;;;;;0.80;0.70;;;1.30;99.90;;;1.80;100.00;-20730.88;5094393;28;20192;-71
2021/04/22 03:54:06;;;;;;;0.80;0.70;;;1.30;99.90;;;1.79;100.00;-20730.59;5095206;28;20188;-71
2021/04/22 03:56:33;;;;;;;0.80;0.70;;;1.40;99.90;;;1.84;100.00;-20732.00;5093186;28;20283;-71
2021/04/22 03:59:00;;;;;;;0.80;0.70;;;1.40;99.90;;;1.82;100.00;-20731.44;5079072;28;20211;-71
2021/04/22 04:01:26;;;;;;;0.80;0.60;;;1.40;99.90;;;1.72;100.00;-20728.50;5089856;28;20213;-71
2021/04/22 04:03:54;;;;;;;0.70;0.70;;;1.40;99.90;;;1.74;100.00;-20729.22;5074148;28;20539;-71
2021/04/22 04:06:25;;;;;;;0.70;0.68;;;1.40;99.90;;;1.73;100.00;-20728.94;5083013;28;20192;-71
2021/04/22 04:08:52;;;;;;;0.70;0.70;;;1.30;99.90;;;1.73;100.00;-20728.94;5074097;28;20561;-71
2021/04/22 04:11:20;;;;;;;0.77;0.70;;;1.30;99.90;;;1.79;100.00;-20730.59;5087512;28;20180;-71
2021/04/22 04:13:47;;;;;;;0.80;0.70;;;1.30;99.90;;;1.86;100.00;-20732.56;5093962;28;20188;-71
2021/04/22 04:16:14;;;;;;;0.70;0.60;;;1.40;99.90;;;1.83;100.00;-20731.72;5093183;28;20691;-71
2021/04/22 04:18:41;;;;;;;0.73;0.65;;;1.50;99.90;;;1.85;100.00;-20732.16;5109596;28;20228;-71
2021/04/22 04:21:10;;;;;;;0.70;0.70;;;1.50;99.90;;;1.87;100.00;-20732.69;5072633;28;20548;-71
2021/04/22 04:23:36;;;;;;;0.70;0.70;;;1.50;99.90;;;1.79;100.00;-20730.59;5073769;28;20177;-71
2021/04/22 04:26:03;;;;;;;0.80;0.70;;;1.50;99.90;;;1.78;100.00;-20730.19;5072156;28;20200;-71
2021/04/22 04:28:31;;;;;;;0.80;0.70;;;1.50;99.90;;;1.82;100.00;-20731.44;5075229;28;20201;-71
2021/04/22 04:30:58;;;;;;;0.80;0.70;;;1.40;99.90;;;1.78;100.00;-20730.19;5074133;28;20593;-71
2021/04/22 04:33:26;;;;;;;0.80;0.80;;;1.40;99.90;;;1.73;100.00;-20728.94;5074093;28;20637;-71
2021/04/22 04:35:53;;;;;;;0.80;0.70;;;1.40;99.90;;;1.73;100.00;-20728.94;5077844;28;20214;-71
2021/04/22 04:38:20;;;;;;;0.80;0.80;;;1.40;99.90;;;1.74;100.00;-20729.22;5092184;28;20656;-71
2021/04/22 04:40:47;;;;;;;0.70;0.70;;;1.40;99.90;;;1.77;100.00;-20730.06;5076700;28;20246;-71
2021/04/22 04:43:14;;;;;;;0.70;0.60;;;1.30;99.90;;;1.70;100.00;-20728.09;5072701;28;20621;-71
2021/04/22 04:45:42;;;;;;;0.70;0.68;;;1.30;99.90;;;1.75;100.00;-20729.50;5072529;28;20653;-71
2021/04/22 04:48:09;;;;;;;0.77;0.70;;;1.40;99.90;;;1.80;100.00;-20730.88;5070772;28;20196;-71
2021/04/22 04:50:36;;;;;;;0.70;0.60;;;1.50;99.90;;;1.85;100.00;-20732.28;5071825;28;20181;-71
2021/04/22 04:53:03;;;;;;;0.70;0.70;;;1.60;99.90;;;1.96;100.00;-20735.06;5088338;28;20185;-71
2021/04/22 04:55:30;;;;;;;0.70;0.60;;;1.70;99.90;;;2.02;100.00;-20736.75;5080413;28;20184;-71
2021/04/22 04:57:57;;;;;;;0.80;0.70;;;1.60;99.90;;;2.09;100.00;-20738.84;5073542;28;20217;-71
2021/04/22 05:00:25;;;;;;;0.70;0.60;;;1.70;99.90;;;2.20;100.00;-20741.63;5076985;28;20691;-71
2021/04/22 05:02:53;;;;;;;0.70;0.60;;;1.70;99.90;;;2.23;100.00;-20742.47;5088730;28;20212;-71
2021/04/22 05:05:20;;;;;;;0.70;0.60;;;1.70;99.90;;;2.26;100.00;-20743.47;5091051;28;20192;-71
2021/04/22 05:07:47;;;;;;;0.70;0.60;;;1.70;99.90;;;2.23;100.00;-20742.63;5083759;28;20197;-71
2021/04/22 05:10:15;;;;;;;0.70;0.70;;;1.80;99.90;;;2.29;100.00;-20744.16;5068596;28;20452;-71
2021/04/22 05:12:42;;;;;;;0.70;0.70;;;1.80;99.90;;;2.27;100.00;-20743.59;5093401;28;20287;-71
2021/04/22 05:15:11;;;;;;;0.80;0.70;;;1.80;99.90;;;2.34;100.00;-20745.69;5090566;28;20193;-71
2021/04/22 05:17:38;;;;;;;0.70;0.60;;;1.80;99.90;;;2.37;100.00;-20746.53;5072330;28;20200;-71
2021/04/22 05:20:08;;;;;;;0.77;0.70;;;1.90;99.90;;;2.50;100.00;-20749.88;5073314;28;20229;-71
2021/04/22 05:22:35;;;;;;;0.70;0.63;;;2.00;99.90;;;2.54;100.00;-20751.00;5072076;28;20265;-70
2021/04/22 05:25:04;;;;;;;0.70;0.68;;;2.00;99.90;;;2.59;100.00;-20752.41;5071624;28;20204;-71
2021/04/22 05:27:31;;;;;;;0.70;0.60;;;2.10;99.90;;;2.73;100.00;-20756.31;5074677;28;20216;-70
2021/04/22 05:29:58;;;;;;;0.70;0.68;;;2.20;99.90;;;2.93;100.00;-20761.59;5073108;28;20199;-70
2021/04/22 05:32:25;;;;;;;0.70;0.60;;;2.40;99.90;;;3.09;100.00;-20766.22;5089414;28;20265;-70
2021/04/22 05:34:52;;;;;;;0.75;0.70;;;2.50;99.90;;;3.21;100.00;-20769.41;5093530;28;20180;-70
2021/04/22 05:37:20;;;;;;;0.80;0.70;;;2.70;99.90;;;3.33;100.00;-20772.75;5093250;28;20212;-70
2021/04/22 05:39:47;;;;;;;0.80;0.68;;;2.80;99.90;;;3.55;100.00;-20778.75;5107940;28;20212;-70
2021/04/22 05:42:14;;;;;;;0.80;0.80;;;2.90;99.90;;;3.66;100.00;-20781.69;5093317;28;20200;-70
2021/04/22 05:44:42;;;;;;;0.80;0.70;;;3.10;99.90;;;3.79;100.00;-20785.19;5092992;28;20189;-70
2021/04/22 05:47:12;;;;;;;0.70;0.60;;;3.20;99.90;;;3.91;100.00;-20788.53;5093379;28;20250;-70
2021/04/22 05:49:39;;;;;;;0.70;0.60;;;3.30;99.90;;;4.05;100.00;-20792.44;5092124;28;20644;-70
2021/04/22 05:52:07;;;;;;;0.80;0.70;;;3.40;99.90;;;4.25;100.00;-20797.84;5092745;28;20279;-70
2021/04/22 05:54:34;;;;;;;0.80;0.70;;;3.60;99.90;;;4.26;100.00;-20798.13;5092870;28;20185;-70
2021/04/22 05:57:02;;;;;;;1.10;1.00;;;3.60;99.90;;;4.32;100.00;-20799.81;5092755;28;20277;-70
2021/04/22 05:59:30;;;;;;;0.80;0.80;;;3.60;99.90;;;4.40;100.00;-20801.91;5072367;28;20215;-70
2021/04/22 06:01:57;;;;;;;0.70;0.70;;;3.80;99.90;;;4.55;100.00;-20805.94;5073967;28;20218;-70
2021/04/22 06:04:25;;;;;;;0.70;0.68;;;3.80;99.90;;;4.65;100.00;-20808.72;5075130;28;20557;-70
2021/04/22 06:06:52;;;;;;;0.80;0.70;;;3.90;99.90;;;4.83;100.00;-20813.75;5076438;28;20684;-70
2021/04/22 06:09:19;;;;;;;0.70;0.70;;;4.00;99.90;;;5.19;100.00;-20823.50;5076463;28;20568;-70
2021/04/22 06:11:47;;;;;;;0.70;0.60;;;4.20;99.90;;;5.16;100.00;-20822.50;5076361;28;20212;-70
2021/04/22 06:14:14;;;;;;;0.80;0.70;;;4.30;99.90;;;5.35;100.00;-20827.66;5076599;28;20193;-70
2021/04/22 06:16:41;;;;;;;0.70;0.70;;;4.40;99.90;;;5.65;100.00;-20836.00;5075208;28;20192;-70
2021/04/22 06:19:08;;;;;;;0.70;0.60;;;4.50;99.90;;;5.91;100.00;-20843.09;5076333;28;20682;-70
2021/04/22 06:21:35;;;;;;;0.70;0.60;;;4.70;99.90;;;6.08;100.00;-20847.56;5076077;28;20196;-71
2021/04/22 06:24:03;;;;;;;0.77;0.65;;;4.90;99.90;;;6.18;100.00;-20850.34;5076053;28;20234;-70
2021/04/22 06:26:31;;;;;;;0.70;0.60;;;5.10;99.90;;;6.28;100.00;-20853.13;5075405;28;20541;-70
2021/04/22 06:29:04;;;;;;;0.80;0.70;;;5.30;99.90;;;6.86;100.00;-20868.81;5075716;28;20189;-70
2021/04/22 06:31:32;;;;;;;0.70;0.60;;;5.40;99.90;;;6.90;100.00;-20869.94;5076288;28;20203;-70
2021/04/22 06:33:59;;;;;;;0.70;0.60;;;5.60;99.90;;;7.23;100.00;-20879.09;5076057;28;20192;-70
2021/04/22 06:36:26;;;;;;;0.70;0.60;;;5.80;99.90;;;7.29;100.00;-20880.63;5075804;28;20188;-70
2021/04/22 06:38:54;;;;;;;0.70;0.60;;;5.90;99.90;;;7.24;100.00;-20879.38;5092624;28;20304;-70
2021/04/22 06:41:21;;;;;;;0.70;0.60;;;6.10;99.90;;;7.52;100.00;-20886.88;5096957;28;20422;-70
2021/04/22 06:43:48;;;;;;;0.70;0.60;;;6.00;99.90;;;7.59;100.00;-20888.69;5100646;28;20764;-70
2021/04/22 06:46:17;;;;;;;0.70;0.50;;;6.10;99.90;;;7.40;100.00;-20883.69;5095979;28;20519;-70
2021/04/22 06:48:44;;;;;;;0.70;0.60;;;6.30;99.90;;;7.43;100.00;-20884.53;5095502;28;20769;-70
2021/04/22 06:51:12;;;;;;;0.70;0.60;;;6.30;99.90;;;7.50;100.00;-20886.31;5095858;28;20441;-70
2021/04/22 06:53:39;;;;;;;0.70;0.60;;;6.30;99.90;;;7.30;100.00;-20880.78;5095341;28;20426;-70
2021/04/22 06:56:06;;;;;;;0.70;0.57;;;6.10;99.90;;;7.40;100.00;-20883.53;5092340;28;20525;-70
2021/04/22 06:58:34;;;;;;;0.70;0.50;;;6.10;99.90;;;7.19;100.00;-20878.00;5082927;28;20468;-70
2021/04/22 07:01:01;;;;;;;0.70;0.60;;;6.10;99.90;;;7.36;100.00;-20882.44;5075602;28;20427;-70
2021/04/22 07:03:29;;;;;;;0.70;0.57;;;6.20;99.90;;;7.59;100.00;-20888.69;5074589;28;20505;-69
2021/04/22 07:05:57;;;;;;;0.70;0.60;;;6.50;99.90;;;8.22;100.00;-20905.91;5075200;28;20415;-70
2021/04/22 07:08:24;;;;;;;0.70;0.50;;;6.90;99.90;;;8.67;100.00;-20918.25;5075477;28;20407;-70
2021/04/22 07:10:52;;;;;;;0.70;0.60;;;7.10;99.90;;;8.95;100.00;-20925.72;5074240;28;20411;-70
2021/04/22 07:13:19;;;;;;;0.70;0.50;;;7.40;99.90;;;9.12;100.00;-20930.44;5103940;28;21002;-70
2021/04/22 07:15:47;;;;;;;0.70;0.50;;;7.30;99.90;;;9.55;100.00;-20942.06;5095129;28;20487;-70
2021/04/22 07:18:16;;;;;;;1.73;1.63;;;7.10;99.90;;;9.73;100.00;-20946.78;5105604;28;20493;-72
2021/04/22 07:20:45;;;;;;;0.70;0.60;;;7.40;99.90;;;10.15;100.00;-20958.41;5076297;28;20455;-71
2021/04/22 07:23:14;;;;;;;0.70;0.60;;;7.50;99.90;;;10.62;100.00;-20971.00;5076801;28;20499;-71
2021/04/22 07:25:42;;;;;;;1.00;0.90;;;7.50;99.90;;;10.47;100.00;-20967.00;5077138;28;20472;-71
2021/04/22 07:28:17;;;;;;;0.70;0.60;;;7.50;99.90;;;9.83;100.00;-20949.69;5079797;28;20458;-72
2021/04/22 07:30:46;;;;;;;0.70;0.60;;;7.60;99.90;;;10.37;100.00;-20964.38;5077748;28;20464;-70
2021/04/22 07:33:17;;;;;;;0.70;0.70;;;7.20;99.60;;;10.32;100.00;-20962.84;5073365;28;20447;-71
2021/04/22 07:35:46;;;;;;;0.70;0.60;;;7.50;98.50;;;9.80;100.00;-20948.72;5095400;28;20436;-70
2021/04/22 07:38:16;;;;;;;0.70;0.60;;;8.10;97.70;;;10.69;100.00;-20972.81;5097179;28;20445;-70
2021/04/22 07:40:44;;;;;;;0.70;0.60;;;8.20;96.80;;;11.18;100.00;-20986.06;5095718;28;20470;-71
2021/04/22 07:43:15;;;;;;;0.90;0.63;;;8.20;95.30;;;11.94;100.00;-21006.81;5078902;28;20442;-71
2021/04/22 07:45:44;;;;;;;0.70;0.60;;;8.40;94.30;;;12.06;100.00;-21010.13;5110713;28;20968;-71
2021/04/22 07:48:12;;;;;;;0.73;0.70;;;8.60;92.70;;;12.24;100.00;-21014.81;5095053;28;20415;-71
2021/04/22 07:51:18;;;;;;;0.70;0.60;;;9.00;93.30;;;13.16;100.00;-21039.66;5106146;28;20449;-71
2021/04/22 07:53:45;;;;;;;0.70;0.60;;;9.30;88.00;;;12.11;100.00;-21011.22;5094088;28;20441;-70
2021/04/22 07:56:23;;;;;;;0.70;0.60;;;8.80;80.10;;;10.67;100.00;-20972.38;5095746;28;20435;-70
2021/04/22 07:58:55;;;;;;;0.70;0.60;;;9.20;80.10;;;10.74;100.00;-20974.31;5094041;28;20448;-71
2021/04/22 08:01:22;;;;;;;0.70;0.60;;;8.60;73.80;;;11.58;100.00;-20997.13;5074399;28;20432;-71
2021/04/22 08:03:49;;;;;;;1.63;1.00;;;9.00;72.30;;;11.11;100.00;-20984.28;5075127;28;20417;-71
2021/04/22 08:06:19;;;;;;;0.70;0.60;;;9.60;66.00;;;11.37;100.00;-20991.31;5093960;28;20438;-70
2021/04/22 08:08:46;;;;;;;0.80;0.60;;;10.00;59.60;;;11.87;100.00;-21004.88;5116291;28;20502;-70
2021/04/22 08:11:13;;;;;;;1.33;1.10;;;9.40;59.50;;;11.96;100.00;-21007.34;5096913;28;20914;-71
2021/04/22 08:13:40;;;;;;;0.70;0.60;;;9.60;61.00;;;12.47;100.00;-21021.03;5095804;28;20447;-70
2021/04/22 08:16:09;;;;;;;0.70;0.60;;;10.00;58.50;;;12.29;100.00;-21016.19;5094331;28;20415;-71
2021/04/22 08:18:37;;;;;;;0.80;0.70;;;10.10;55.80;;;12.95;100.00;-21034.13;5083304;28;20441;-70
2021/04/22 08:21:05;;;;;;;0.70;0.50;;;10.90;53.90;;;14.63;100.00;-21079.34;5073988;28;20476;-71
2021/04/22 08:23:34;;;;;;;0.70;0.60;;;10.70;52.80;;;12.77;100.00;-21029.16;5074205;28;20424;-71
2021/04/22 08:26:05;;;;;;;0.80;0.70;;;10.00;51.50;;;12.27;100.00;-21015.66;5073169;28;20459;-71
2021/04/22 08:28:34;;;;;;;0.70;0.60;;;9.30;55.00;;;13.06;100.00;-21037.03;5077261;28;20474;-71
2021/04/22 08:31:06;;;;;;;0.70;0.60;;;9.70;53.30;;;13.50;100.00;-21048.88;5083257;28;20453;-70
2021/04/22 08:33:36;;;;;;;0.80;0.60;;;10.60;54.40;;;15.87;100.00;-21112.75;5073997;28;20415;-71
2021/04/22 08:36:06;;;;;;;0.80;0.80;;;11.10;48.30;;;14.66;100.00;-21080.28;5077671;28;20441;-71
2021/04/22 08:38:34;;;;;;;0.90;0.90;;;11.60;51.20;;;15.26;99.92;-21096.38;5093758;28;20433;-72
2021/04/22 08:41:03;;;;;;;0.80;0.70;;;11.10;45.00;;;15.56;100.00;-21104.38;5081208;28;20459;-71
2021/04/22 08:43:36;;;;;;;0.80;0.70;;;11.70;46.60;;;16.43;98.56;-21128.00;5073752;28;20757;-71
2021/04/22 08:46:05;;;;;;;0.80;0.70;;;12.40;42.30;;;17.94;92.85;-21168.34;5093400;28;20434;-70
2021/04/22 08:48:42;;;;;;;0.70;0.60;;;11.90;39.60;;;18.33;86.54;-21179.00;5101349;28;20397;-72
2021/04/22 08:51:13;;;;;;;0.80;0.70;;;11.50;37.60;;;18.12;86.96;-21173.25;5099236;28;20435;-72
2021/04/22 08:53:46;;;;;;;0.80;0.60;;;11.90;39.30;;;18.23;86.86;-21176.13;5091104;28;20427;-72
2021/04/22 08:56:15;;;;;;;1.10;0.83;;;12.40;38.10;;;17.83;86.49;-21165.59;5092498;28;20482;-71
2021/04/22 08:58:43;;;;;;;0.80;0.70;;;12.70;37.90;;;19.31;82.63;-21205.16;5080597;28;20452;-72
2021/04/22 09:01:13;;;;;;;0.70;0.60;;;11.90;35.20;;;17.62;83.07;-21159.97;5073307;28;20437;-72
2021/04/22 09:03:41;;;;;;;0.90;0.80;;;11.40;34.70;;;17.27;86.58;-21150.50;5073475;28;20420;-72
2021/04/22 09:06:10;;;;;;;0.70;0.60;;;11.30;38.80;;;17.64;84.23;-21160.38;5072304;28;20428;-71
2021/04/22 09:08:41;;;;;;;0.93;0.90;;;11.80;36.10;;;18.01;84.84;-21170.38;5088097;28;20522;-72
2021/04/22 09:11:11;;;;;;;6.40;1.43;;;11.90;37.80;;;18.10;82.50;-21172.72;5109076;28;20384;-72
2021/04/22 09:13:39;;;;;;;1.07;0.97;;;11.70;34.10;;;18.82;80.94;-21192.03;5093590;28;20424;-71
2021/04/22 09:16:09;;;;;;;0.80;0.70;;;11.50;33.50;;;18.96;80.26;-21195.84;5092422;28;20442;-71
2021/04/22 09:18:44;;;;;;;1.20;1.10;;;11.40;36.00;;;16.59;82.35;-21132.13;5092860;28;20857;-70
2021/04/22 09:21:26;;;;;;;0.80;0.70;;;12.30;34.60;;;15.89;87.19;-21113.44;5078655;28;20440;-71
2021/04/22 09:24:01;;;;;;;0.70;0.60;;;12.50;32.70;;;16.20;85.69;-21121.69;5075091;28;20459;-71
2021/04/22 09:26:44;;;;;;;0.80;0.70;;;11.80;31.10;;;16.26;83.82;-21123.31;5077597;28;20995;-71
2021/04/22 09:29:29;;;;;;;0.80;0.70;;;12.10;32.10;;;17.50;85.24;-21156.69;5073483;28;20435;-70
2021/04/22 09:32:08;;;;;;;0.70;0.60;;;12.90;32.40;;;16.30;85.23;-21124.44;5076561;28;20454;-71
2021/04/22 09:34:36;;;;;;;0.70;0.60;;;13.40;30.50;;;16.67;86.27;-21134.44;5075150;28;20428;-70
2021/04/22 09:37:04;;;;;;;0.70;0.60;;;13.70;29.90;;;18.20;83.50;-21175.31;5091801;28;20897;-71
2021/04/22 09:39:34;;;;;;;0.73;0.60;;;13.20;26.40;;;18.47;81.77;-21182.72;5096838;28;20490;-71
2021/04/22 09:42:10;;;;;;;0.70;0.60;;;12.50;27.40;;;18.05;79.88;-21171.34;5096944;28;20466;-71
2021/04/22 09:44:39;;;;;;;0.70;0.60;;;12.60;26.00;;;18.92;80.03;-21194.63;5097422;28;20389;-71
2021/04/22 09:47:11;;;;;;;0.80;0.60;;;12.90;25.30;;;19.16;79.32;-21201.06;5096203;28;20434;-71
2021/04/22 09:49:51;;;;;;;0.80;0.70;;;12.40;26.30;;;17.26;79.15;-21150.22;5097199;28;20479;-71
2021/04/22 09:52:20;;;;;;;0.70;0.60;;;12.20;25.80;;;18.57;79.66;-21185.44;5097201;28;20417;-71
2021/04/22 09:54:51;;;;;;;0.73;0.63;;;12.40;27.50;;;18.81;79.68;-21191.88;5096625;28;20440;-71
2021/04/22 09:57:28;;;;;;;0.70;0.60;;;12.30;28.10;;;17.58;81.20;-21158.72;5095322;28;20449;-71
2021/04/22 09:59:57;;;;;;;0.83;0.80;;;12.60;27.70;;;16.18;81.97;-21121.13;5090594;28;20484;-71
2021/04/22 10:02:24;;;;;;;0.70;0.60;;;12.50;29.40;;;16.99;82.60;-21142.81;5075358;28;20439;-71
2021/04/22 10:04:55;;;;;;;0.80;0.70;;;11.80;26.10;;;15.73;84.41;-21109.03;5076594;28;20451;-71
2021/04/22 10:07:26;;;;;;;0.80;0.80;;;12.50;28.40;;;16.78;85.49;-21137.19;5075257;28;20386;-71
2021/04/22 10:09:56;;;;;;;0.80;0.60;;;13.20;27.10;;;17.13;85.69;-21146.66;5076240;28;20455;-71
2021/04/22 10:12:27;;;;;;;0.70;0.60;;;13.90;26.10;;;17.34;81.89;-21152.44;5088287;28;20939;-70
2021/04/22 10:14:56;;;;;;;0.80;0.60;;;13.10;25.40;;;18.14;79.54;-21173.66;5096668;28;20393;-71
2021/04/22 10:17:25;;;;;;;0.70;0.60;;;13.10;23.60;;;19.75;76.00;-21217.06;5096738;28;20472;-71
2021/04/22 10:20:01;;;;;;;0.70;0.60;;;12.80;21.70;;;18.62;78.79;-21186.53;5094872;28;20454;-71
2021/04/22 10:22:34;;;;;;;0.80;0.70;;;13.20;23.20;;;17.76;80.50;-21163.66;5095418;28;20415;-70
2021/04/22 10:25:05;;;;;;;0.80;0.60;;;14.20;23.70;;;18.52;79.89;-21184.09;5089707;28;20430;-71